Anza Borrego Desert Research Center, California Weather observations

Data are for 10 minute period ending at time listed.
 Day   Time   Solar   Ave.   Ave.  Ave.  Vector  Max.   Baro.   Total    
  of    of     Rad.   Air    Rel.  Wind   Wind   Wind  Press.  Precip.   
Year   Day            Temp.  Hum.  Speed  Dir.   Gust                    
2015   (PST)  Kw/m2    F      %     mph   deg.    mph    mb.     in.     
-------------------------------------------------------------------------
 183   16:00   0.53  104.0    22   12.9   272    20.5   977.2    0.00 
 183   16:10   0.50  104.4    22   10.9   278    18.5   977.1    0.00 
 183   16:20   0.47  104.6    22    7.2   299    12.9   977.0    0.00 
 183   16:30   0.44  104.5    22    8.1   289    14.3   976.9    0.00 
 183   16:40   0.40  103.6    23   11.3   288    18.8   976.8    0.00 
 183   16:50   0.37  103.7    22    8.1   284    13.4   976.8    0.00 
 183   17:00   0.34  103.8    22    6.8   309    12.4   976.7    0.00 
 183   17:10   0.30  103.1    22    9.0   317    16.4   976.7    0.00 
 183   17:20   0.27  101.0    23   11.7   320    19.5   976.5    0.00 
 183   17:30   0.24  100.3    23   14.0   322    21.0   976.5    0.00 
 183   17:40   0.20  100.2    22   10.7   315    21.3   976.6    0.00 
 183   17:50   0.03   98.7    23   11.9   324    21.5   976.7    0.00 
 183   18:00   0.01   97.5    23   13.9   319    21.3   976.9    0.00 
 183   18:10   0.01   97.0    23   16.4   319    24.5   977.0    0.00 
 183   18:20   0.01   96.3    24   14.3   321    28.6   977.2    0.00 
 183   18:30   0.01   95.9    25   13.4   318    21.1   977.3    0.00 
 183   18:40   0.01   95.3    25   15.0   322    24.0   977.3    0.00 
 183   18:50   0.00   95.0    26   14.0   321    22.9   977.1    0.00 
 183   19:00   0.00   95.0    26   12.6   315    22.4   976.5    0.00 
 183   19:10   0.00   94.5    27   17.6   322    28.6   893.1    0.00 
 183   19:20   0.00   93.7    28   16.0   323    25.2   502.2    0.00 
 183   19:30   0.00   93.5    28   17.6   321    27.6   502.1    0.00 
 183   19:40   0.00   93.2    28   15.7   319    24.0   502.1    0.00 
 183   19:50   0.00   93.3    28   11.3   313    23.9   502.1    0.00 
 183   20:00   0.00   93.5    27    9.7   318    17.7   502.1    0.00 
 183   20:10   0.00   93.7    27    6.4   339    14.0   502.1    0.00 
 183   20:20   0.00   93.3    27    3.9   109     8.7   502.1    0.00 
 183   20:30   0.00   92.1    28    4.1    94     6.5   502.1    0.00 
 183   20:40   0.00   91.5    29    5.6   129     9.9   502.1    0.00 
 183   20:50   0.00   91.5    29    5.0   141     9.6   502.1    0.00 
 183   21:00   0.00   90.2    30    1.6   256     3.1   502.1    0.00 
 183   21:10   0.00   89.6    30    2.5   310     4.0   502.1    0.00 
 183   21:20   0.00   88.8    31    2.4   297     4.9   502.1    0.00 
 183   21:30   0.00   89.3    30    1.2    48     2.6   502.0    0.00 
 183   21:40   0.00   87.2    32    1.1   159     2.6   502.0    0.00 
 183   21:50   0.00   86.8    33    0.1   252     1.9   502.0    0.00 
 183   22:00   0.00   85.1    34    1.5   237     3.1   502.0    0.00 
 183   22:10   0.00   84.7    34    1.1   224     2.0   502.0    0.00 
 183   22:20   0.00   82.5    36    1.8   154     3.7   502.0    0.00 
 183   22:30   0.00   82.0    36    2.4   200     3.7   502.0    0.00 
 183   22:40   0.00   83.1    35    1.2   212     2.3   502.0    0.00 
 183   22:50   0.00   82.1    36    1.2   286     2.5   502.0    0.00 
 183   23:00   0.00   83.0    36    2.2   206     3.5   502.0    0.00 
 183   23:10   0.00   83.4    35    2.3   258     3.0   502.0    0.00 
 183   23:20   0.00   81.8    37    3.3   237     4.8   502.0    0.00 
 183   23:30   0.00   80.3    38    4.7   242     6.0   502.0    0.00 
 183   23:40   0.00   81.2    38    3.2   260     5.3   502.0    0.00 
 183   23:50   0.00   80.4    39    5.1   236     6.7   502.0    0.00 
 184    0:00   0.00   80.7    38    5.1   240     6.1   502.0    0.00 
 184    0:10   0.00   80.3    39    4.7   220     6.2   502.0    0.00 
 184    0:20   0.00   80.7    38    4.0   187     4.7   502.0    0.00 
 184    0:30   0.00   81.6    37    2.9   190     4.4   502.0    0.00 
 184    0:40   0.00   81.6    38    4.3   208     5.3   502.0    0.00 
 184    0:50   0.00   80.5    38    4.0   220     5.8   502.0    0.00 
 184    1:00   0.00   79.8    39    2.4   223     3.4   502.0    0.00 
 184    1:10   0.00   79.0    40    3.1   234     3.8   502.0    0.00 
 184    1:20   0.00   79.4    39    3.8   207     5.0   501.9    0.00 
 184    1:30   0.00   80.4    38    5.0   189     6.7   501.9    0.00 
 184    1:40   0.00   80.2    38    5.3   196     6.8   501.9    0.00 
 184    1:50   0.00   79.7    39    4.3   225     5.3   501.9    0.00 
 184    2:00   0.00   79.9    38    3.7   214     4.8   501.9    0.00 
 184    2:10   0.00   79.7    39    4.1   222     5.6   501.9    0.00 
 184    2:20   0.00   79.7    39    3.9   234     4.9   501.9    0.00 
 184    2:30   0.00   79.6    39    4.2   230     4.9   501.9    0.00 
 184    2:40   0.00   79.7    39    4.3   218     5.7   501.9    0.00 
 184    2:50   0.00   79.5    38    4.4   202     5.6   501.9    0.00 
 184    3:00   0.00   78.9    39    4.2   199     4.9   501.9    0.00 
 184    3:10   0.00   80.5    37    4.2   217     5.5   501.9    0.00 
 184    3:20   0.00   79.9    38    3.8   229     5.2   501.9    0.00 
 184    3:30   0.00   79.7    38    2.1   191     2.9   501.9    0.00 
 184    3:40   0.00   78.5    39    3.4   217     4.8   501.9    0.00 
 184    3:50   0.00   79.2    38    5.0   227     6.5   501.8    0.00 
 184    4:00   0.00   80.6    37    5.1   235     6.5   501.8    0.00 
 184    4:10   0.00   79.0    38    4.5   238     7.1   501.9    0.00 
 184    4:20   0.00   79.1    38    2.7   266     5.8   501.9    0.00 
 184    4:30   0.00   77.1    40    2.1   267     3.4   501.8    0.00 
 184    4:40   0.00   76.6    40    3.4   312     4.6   501.8    0.00 
 184    4:50   0.00   77.9    39    3.4   309     3.9   501.8    0.00 
 184    5:00   0.01   77.2    39    3.1   286     4.2   501.8    0.00 
 184    5:10   0.02   76.6    40    2.4   304     3.6   501.8    0.00 
 184    5:20   0.04   78.0    38    4.6   215     6.0   501.8    0.00 
 184    5:30   0.08   81.4    34    3.6   212     5.1   501.8    0.00 
 184    5:40   0.09   84.1    32    2.1   230     3.2   501.8    0.00 
 184    5:50   0.10   85.3    31    1.8   214     2.6   501.9    0.00 
 184    6:00   0.14   86.2    31    2.7   236     4.1   502.0    0.00 
 184    6:10   0.19   88.8    28    2.2   218     3.1   502.0    0.00 
 184    6:20   0.22   92.2    26    0.9   184     1.7   502.0    0.00 
 184    6:30   0.30   94.4    25    1.1    98     3.9   502.0    0.00 
 184    6:40   0.34   92.9    26    2.5   127     4.1   502.0    0.00 
 184    6:50   0.35   93.7    25    2.7   165     5.3   502.0    0.00 
 184    7:00   0.40   94.3    25    3.9   170     5.4   502.1    0.00 
 184    7:10   0.43   94.5    24    3.6   152     6.0   502.1    0.00 
 184    7:20   0.41   94.3    24    3.6   172     5.1   502.1    0.00 
 184    7:30   0.49   95.0    24    3.9   150     6.5   502.1    0.00 
 184    7:40   0.52   94.8    24    4.5   139     7.3   502.1    0.00 
 184    7:50   0.56   95.0    24    4.3   143     7.1   502.1    0.00 
 184    8:00   0.59   95.7    24    3.3   124     6.6   502.1    0.00 
 184    8:10   0.62   96.2    23    3.0    96     7.4   502.2    0.00 
 184    8:20   0.55   96.8    23    3.1   127     6.1   502.3    0.00 
 184    8:30   0.66   96.8    22    3.4    78     5.8   502.3    0.00 
 184    8:40   0.72   97.7    22    2.3   332     4.5   960.3    0.00 
 184    8:50   0.74   99.1    21    3.3    87     6.6   979.8    0.00 
 184    9:00   0.77   98.7    21    5.4    95     9.5   979.8    0.00 
 184    9:10   0.79   99.1    20    4.5    56     8.0   979.8    0.00 
 184    9:20   0.77  100.0    19    3.8   102     6.5   979.8    0.00 
 184    9:30   0.77  101.0    18    2.6   129     6.4   979.6    0.00 
 184    9:40   0.81  101.0    18    2.8    61     6.6   979.5    0.00 
 184    9:50   0.88  101.7    18    1.8     8     4.2   979.4    0.00 
 184   10:00   0.92  102.1    17    4.6   119     8.6   979.3    0.00 
 184   10:10   0.93  102.9    17    2.7   139     5.6   979.1    0.00 
 184   10:20   0.91  103.2    16    5.2    80     9.4   979.1    0.00 
 184   10:30   0.95  103.4    16    3.1   118     7.5   979.0    0.00 
 184   10:40   0.96  103.7    16    5.9   107    12.1   978.9    0.00 
 184   10:50   1.06  103.8    16    3.9    90     7.9   978.8    0.00 
 184   11:00   1.01  105.4    15    3.6   125     8.2   978.7    0.00 
 184   11:10   0.95  105.0    15    6.3   103    11.1   978.6    0.00 
 184   11:20   0.81  104.9    15    2.4   114     7.5   978.4    0.00 
 184   11:30   0.97  106.7    14    5.0   107     9.8   978.2    0.00 
 184   11:40   1.00  106.0    14    6.5    98    11.2   978.1    0.00 
 184   11:50   1.05  105.9    14    5.7    95    12.4   977.9    0.00 
 184   12:00   0.95  106.5    14    5.5    31    13.2   977.8    0.00 
 184   12:10   0.90  106.2    14    6.6    85    13.2   977.7    0.00 
 184   12:20   0.96  106.5    14    6.7   116    11.9   977.6    0.00 
 184   12:30   0.99  107.3    13    5.2   162     8.6   977.5    0.00 
 184   12:40   0.79  108.1    13    3.0   253     8.1   977.3    0.00 
 184   12:50   0.88  107.4    14    6.3    79    11.6   977.2    0.00 
 184   13:00   0.64  107.3    14    5.8    48    10.2   977.1    0.00 
 184   13:10   0.83  107.0    14    8.3    95    12.8   977.0    0.00 
 184   13:20   0.79  107.3    13    5.0   101    10.7   976.9    0.00 
 184   13:30   0.86  108.1    13    4.0    61     8.0   976.7    0.00 
 184   13:40   0.78  108.2    13    7.4    84    11.0   976.6    0.00 
 184   13:50   0.93  108.3    13    3.3    87     9.3   976.5    0.00 
 184   14:00   0.73  108.6    12    6.0    90    10.6   976.4    0.00 
 184   14:10   0.56  108.4    12    5.6    69    10.1   976.3    0.00 
 184   14:20   0.50  107.7    13    6.0   111    11.2   976.2    0.00 
 184   14:30   0.73  107.8    13    5.1    97    11.2   976.0    0.00 
 184   14:40   0.85  109.1    12    6.2   107    12.0   975.8    0.00 
 184   14:50   0.72  108.9    12    5.1   119    11.5   975.7    0.00 
 184   15:00   0.77  111.4    12    3.3   147    11.1   975.6    0.00 
 184   15:10   0.73  110.2    12    3.9   167    10.1   975.5    0.00 
 184   15:20   0.63  109.6    12    6.4   121    12.4   975.4    0.00 
 184   15:30   0.48  108.4    12    5.5   154     9.1   975.3    0.00 
 184   15:40   0.34  108.4    12    6.0   169    12.2   975.1    0.00 
 184   15:50   0.34  107.9    12    4.3   190     7.1   974.9    0.00 

Return to Anza Borrego Desert Research Center graphs page.


Western Regional Climate Center,wrcc@dri.edu